Αρχική σελίδα
METAR-TAF:

METAR-TAF

Αεροδρόμια :

Αβάνα, Κούβα

γεωγραφικό πλάτος: 22-59N, γεωγραφικό μήκος: 082-24W, υψόμετρο: 59 μ

Παρών καιρός

Η αναφορά έγινε 17 λεπτά πριν, στις 05:55 UTC
Άνεμος 7 kt από Β
Θερμοκρασία 20°C
Υγρασία 68%
Πίεση 1018 hPa
Ορατότητα: 9000 μ
Διάσπαρτα νέφη σε ύψος 3000 πόδια

METAR: MUHA 220555Z 36007KT 9000 SCT030 20/14 Q1018

Χρόνος: 02:12 (06:12 UTC)

Πρόγνωση Καιρού

Η αναφορά έγινε 1 ώρα και 12 λεπτά πριν, στις 05:00 UTC
Η πρόγνωση ισχύει από τις 22 στις 06 UTC έως τις 23 στις 06 UTC
Άνεμος 6 kt από Β/BA
Ορατότητα: 9000 μ
Διάσπαρτα νέφη σε ύψος 3000 πόδια
Καθιστάμενος
από 22 στις 16 UTC έως τις 22 στις 18 UTC
Άνεμος 12 kt από BA
Καθιστάμενος
από 23 στις 03 UTC έως τις 23 στις 05 UTC
Άνεμος 4 kt από μεταβλητές κατευθύνσεις

TAF: MUHA 220500Z 2206/2306 02006KT 9000 SCT030 BECMG 2216/2218 04012KT BECMG 2303/2305 VRB04KT

Μετεωρολογικές αναφορές και προγνώσεις για περισσότερα από 4000 αεροδρόμια (δελτία METAR και TAF).

Οι διαθέσιμοι σταθμοί απεικονίζονται στο χάρτη με κίτρινες και κόκκινες κουκκίδες.

Μετακινήστε το ποντίκι πάνω από τις κουκκίδες για να δείτε το όνομα του σταθμού.

Στη συνέχεια, κάντε κλικ για να δείτε τις μετεωρολογικές αναφορές και τις προγνώσεις καιρού.

Για να αλλάξετε το χάρτη: κάντε κλικ στα πράσινα κουμπιά με τον μαύρο σταυρό για να ζουμάρετε, στο πράσινο κουμπί με την παύλα για να αφαιρέσετε το ζουμ ή στα πράσινα βέλη για να αντιπαραβάλλετε χάρτες.


METAR-TAF: